createdAt,value
2017-11-06T00:02:08.988Z,11.80
2017-11-06T00:04:34.943Z,11.79
2017-11-06T00:07:00.994Z,11.75
2017-11-06T00:09:26.973Z,11.76
2017-11-06T00:11:52.922Z,11.80
2017-11-06T00:14:18.934Z,11.80
2017-11-06T00:16:44.870Z,11.77
2017-11-06T00:19:10.821Z,11.67
2017-11-06T00:21:36.794Z,11.79
2017-11-06T00:24:02.786Z,11.81
2017-11-06T00:26:28.764Z,11.84
2017-11-06T00:28:54.695Z,11.78
2017-11-06T00:31:20.624Z,11.76
2017-11-06T00:33:46.548Z,11.78
2017-11-06T00:36:12.490Z,11.79
2017-11-06T00:38:38.432Z,11.73
2017-11-06T00:41:04.379Z,11.80
2017-11-06T00:43:30.351Z,11.80
2017-11-06T00:45:56.287Z,11.87
2017-11-06T00:48:22.270Z,11.89
2017-11-06T00:50:48.263Z,11.82
2017-11-06T00:53:14.200Z,11.74
2017-11-06T00:55:40.130Z,11.66
2017-11-06T00:58:06.082Z,11.79
2017-11-06T01:00:32.020Z,11.76
2017-11-06T01:02:57.963Z,11.79
2017-11-06T01:05:23.892Z,11.77
2017-11-06T01:07:49.850Z,11.79
2017-11-06T01:10:15.790Z,11.81
2017-11-06T01:12:41.766Z,11.82
2017-11-06T01:15:07.688Z,11.81
2017-11-06T01:17:33.650Z,11.81
2017-11-06T01:19:59.747Z,11.72
2017-11-06T01:22:25.688Z,11.60
2017-11-06T01:24:51.668Z,11.71
2017-11-06T01:27:17.641Z,11.71
2017-11-06T01:29:43.590Z,11.63
2017-11-06T01:32:09.524Z,11.70
2017-11-06T01:34:35.467Z,11.69
2017-11-06T01:37:01.414Z,11.73
2017-11-06T01:39:27.393Z,11.76
2017-11-06T01:41:53.334Z,11.96
2017-11-06T01:44:19.281Z,11.77
2017-11-06T01:46:45.224Z,11.80
2017-11-06T01:49:11.164Z,11.73
2017-11-06T01:51:37.098Z,11.72
2017-11-06T01:54:03.076Z,11.67
2017-11-06T01:56:29.018Z,11.71
2017-11-06T01:58:54.960Z,11.70
2017-11-06T02:01:20.908Z,11.68
2017-11-06T02:03:46.857Z,11.71
2017-11-06T02:06:12.798Z,11.76
2017-11-06T02:08:38.730Z,11.74
2017-11-06T02:11:04.665Z,11.72
2017-11-06T02:13:30.636Z,11.80
2017-11-06T02:15:56.598Z,11.81
2017-11-06T02:18:22.566Z,11.70
2017-11-06T02:20:48.538Z,11.74
2017-11-06T02:23:14.474Z,11.72
2017-11-06T02:25:40.432Z,11.69
2017-11-06T02:28:06.356Z,11.77
2017-11-06T02:30:32.316Z,11.75
2017-11-06T02:32:58.246Z,11.60
2017-11-06T02:35:24.182Z,11.61
2017-11-06T02:37:50.119Z,11.61
2017-11-06T02:40:16.095Z,11.60
2017-11-06T02:42:42.051Z,11.68
2017-11-06T02:45:08.034Z,11.66
2017-11-06T02:47:33.962Z,11.66
2017-11-06T02:49:59.992Z,11.61
2017-11-06T02:52:25.928Z,11.67
2017-11-06T02:54:51.859Z,11.61
2017-11-06T02:57:17.802Z,11.58
2017-11-06T02:59:43.911Z,11.67
2017-11-06T03:02:09.843Z,11.63
2017-11-06T03:04:35.774Z,11.59
2017-11-06T03:07:01.749Z,11.64
2017-11-06T03:09:27.742Z,11.61
2017-11-06T03:11:53.686Z,11.67
2017-11-06T03:14:19.655Z,11.64
2017-11-06T03:16:45.612Z,11.59
2017-11-06T03:19:11.562Z,11.53
2017-11-06T03:21:37.521Z,11.62
2017-11-06T03:24:03.492Z,11.61
2017-11-06T03:26:29.421Z,11.70
2017-11-06T03:28:55.383Z,11.70
2017-11-06T03:31:21.324Z,11.52
2017-11-06T03:33:47.300Z,11.42
2017-11-06T03:36:13.222Z,11.52
2017-11-06T03:38:39.143Z,11.47
2017-11-06T03:41:05.087Z,11.56
2017-11-06T03:43:31.032Z,11.58
2017-11-06T03:45:56.958Z,11.67
2017-11-06T03:48:22.894Z,11.60
2017-11-06T03:50:48.840Z,11.47
2017-11-06T03:53:14.766Z,11.56
2017-11-06T03:55:40.712Z,11.50
2017-11-06T03:58:06.646Z,11.46
2017-11-06T04:00:32.598Z,11.42
2017-11-06T04:02:58.532Z,11.52
2017-11-06T04:05:24.462Z,11.38
2017-11-06T04:07:50.414Z,11.29
2017-11-06T04:10:16.372Z,11.44
2017-11-06T04:12:42.333Z,11.53
2017-11-06T04:15:08.266Z,11.55
2017-11-06T04:17:34.224Z,11.43
2017-11-06T04:20:00.194Z,11.44
2017-11-06T04:22:26.154Z,11.42
2017-11-06T04:24:52.150Z,11.46
2017-11-06T04:27:18.124Z,11.42
2017-11-06T04:29:44.082Z,11.55
2017-11-06T04:32:10.027Z,11.51
2017-11-06T04:34:35.987Z,11.42
2017-11-06T04:37:01.929Z,11.61
2017-11-06T04:39:27.884Z,11.43
2017-11-06T04:41:53.864Z,11.29
2017-11-06T04:44:19.844Z,11.47
2017-11-06T04:46:45.792Z,11.45
2017-11-06T04:49:11.791Z,11.35
2017-11-06T04:51:37.845Z,11.35
2017-11-06T04:54:03.940Z,11.32
2017-11-06T04:56:29.876Z,11.30
2017-11-06T04:58:55.832Z,11.35
2017-11-06T05:01:21.856Z,11.22
2017-11-06T05:03:47.785Z,11.35
2017-11-06T05:06:13.735Z,11.25
2017-11-06T05:08:39.694Z,11.22
2017-11-06T05:11:05.628Z,11.33
2017-11-06T05:13:31.581Z,11.35
2017-11-06T05:15:57.511Z,11.41
2017-11-06T05:18:23.437Z,11.41
2017-11-06T05:20:49.395Z,11.30
2017-11-06T05:23:15.374Z,11.36
2017-11-06T05:25:41.320Z,11.39
2017-11-06T05:28:07.275Z,11.22
2017-11-06T05:30:33.226Z,11.18
2017-11-06T05:32:59.190Z,11.19
2017-11-06T05:35:25.135Z,11.18
2017-11-06T05:37:51.070Z,11.20
2017-11-06T05:40:17.008Z,11.19
2017-11-06T05:42:42.956Z,11.24
2017-11-06T05:45:08.903Z,11.30
2017-11-06T05:47:34.860Z,11.25
2017-11-06T05:50:00.823Z,11.07
2017-11-06T05:52:26.844Z,11.11
2017-11-06T05:54:52.835Z,11.04
2017-11-06T05:57:18.817Z,11.27
2017-11-06T05:59:44.770Z,11.12
2017-11-06T06:02:10.707Z,11.17
2017-11-06T06:04:36.683Z,11.07
2017-11-06T06:07:02.628Z,11.09
2017-11-06T06:09:28.584Z,11.23
2017-11-06T06:11:54.515Z,11.15
2017-11-06T06:14:20.470Z,11.11
2017-11-06T06:16:46.421Z,11.15
2017-11-06T06:19:12.348Z,10.99
2017-11-06T06:21:38.295Z,11.04
2017-11-06T06:24:04.244Z,11.19
2017-11-06T06:26:30.183Z,11.12
2017-11-06T06:28:56.155Z,11.10
2017-11-06T06:31:22.086Z,11.16
2017-11-06T06:33:48.034Z,11.19
2017-11-06T06:36:13.963Z,11.17
2017-11-06T06:38:39.944Z,11.06
2017-11-06T06:41:05.890Z,11.10
2017-11-06T06:43:31.849Z,11.15
2017-11-06T06:45:57.781Z,11.06
2017-11-06T06:48:23.725Z,11.08
2017-11-06T06:50:49.654Z,11.09
2017-11-06T06:53:15.608Z,11.09
2017-11-06T06:55:41.559Z,11.25
2017-11-06T06:58:07.502Z,11.21
2017-11-06T07:00:33.498Z,11.26
2017-11-06T07:02:59.468Z,11.16
2017-11-06T07:05:25.434Z,11.19
2017-11-06T07:07:51.395Z,11.15
2017-11-06T07:10:17.331Z,11.26
2017-11-06T07:12:43.287Z,11.10
2017-11-06T07:15:09.239Z,11.13
2017-11-06T07:17:35.199Z,11.16
2017-11-06T07:20:01.139Z,11.19
2017-11-06T07:22:27.101Z,11.18
2017-11-06T07:24:53.031Z,11.10
2017-11-06T07:27:18.982Z,11.13
2017-11-06T07:29:44.913Z,11.14
2017-11-06T07:32:10.900Z,11.14
2017-11-06T07:34:36.852Z,11.25
2017-11-06T07:37:02.819Z,11.28
2017-11-06T07:39:28.779Z,11.28
2017-11-06T07:41:54.755Z,11.23
2017-11-06T07:44:20.700Z,11.29
2017-11-06T07:46:46.652Z,11.23
2017-11-06T07:49:12.650Z,11.25
2017-11-06T07:51:38.597Z,11.20
2017-11-06T07:54:04.527Z,11.18
2017-11-06T07:56:30.473Z,11.24
2017-11-06T07:58:56.451Z,11.32
2017-11-06T08:01:22.420Z,11.38
2017-11-06T08:03:48.362Z,11.38
2017-11-06T08:06:14.306Z,11.47
2017-11-06T08:08:40.253Z,11.50
2017-11-06T08:11:06.220Z,11.48
2017-11-06T08:13:32.193Z,11.46
2017-11-06T08:15:58.124Z,11.32
2017-11-06T08:18:24.116Z,11.24
2017-11-06T08:20:50.070Z,11.49
2017-11-06T08:23:16.008Z,11.52
2017-11-06T08:25:41.960Z,11.53
2017-11-06T08:28:07.906Z,11.56
2017-11-06T08:30:33.885Z,11.59
2017-11-06T08:32:59.838Z,11.63
2017-11-06T08:35:25.773Z,11.59
2017-11-06T08:37:51.723Z,11.56
2017-11-06T08:40:17.691Z,11.53
2017-11-06T08:42:43.645Z,11.56
2017-11-06T08:45:09.603Z,11.77
2017-11-06T08:47:35.537Z,11.63
2017-11-06T08:50:01.484Z,11.52
2017-11-06T08:52:27.446Z,11.61
2017-11-06T08:54:53.387Z,11.58
2017-11-06T08:57:19.329Z,11.63
2017-11-06T08:59:45.268Z,11.59
2017-11-06T09:02:11.212Z,11.52
2017-11-06T09:04:37.167Z,11.61
2017-11-06T09:07:03.090Z,11.65
2017-11-06T09:09:29.027Z,11.80
2017-11-06T09:11:54.967Z,11.78
2017-11-06T09:14:21.950Z,11.62
2017-11-06T09:16:47.914Z,11.74
2017-11-06T09:19:13.875Z,11.72
2017-11-06T09:21:39.895Z,11.75
2017-11-06T09:24:05.980Z,11.75
2017-11-06T09:26:31.906Z,11.61
2017-11-06T09:28:58.016Z,11.64
2017-11-06T09:31:23.970Z,11.69
2017-11-06T09:33:49.940Z,11.48
2017-11-06T09:36:15.912Z,11.62
2017-11-06T09:38:41.855Z,11.68
2017-11-06T09:41:07.844Z,11.92
2017-11-06T09:43:33.824Z,11.78
2017-11-06T09:45:59.775Z,11.65
2017-11-06T09:48:25.750Z,11.57
2017-11-06T09:50:51.692Z,11.62
2017-11-06T09:53:17.680Z,11.66
2017-11-06T09:55:43.655Z,11.64
2017-11-06T09:58:09.648Z,11.54
2017-11-06T10:00:35.697Z,11.59
2017-11-06T10:03:01.637Z,11.71
2017-11-06T10:05:27.659Z,11.72
2017-11-06T10:07:53.600Z,11.74
2017-11-06T10:10:19.613Z,11.70
2017-11-06T10:12:45.568Z,11.72
2017-11-06T10:15:11.518Z,11.68
2017-11-06T10:17:37.489Z,11.81
2017-11-06T10:20:03.452Z,11.72
2017-11-06T10:22:29.452Z,11.74
2017-11-06T10:24:55.384Z,11.78
2017-11-06T10:27:21.390Z,11.75
2017-11-06T10:29:47.340Z,11.80
2017-11-06T10:32:13.925Z,11.87
2017-11-06T10:34:39.901Z,11.91
2017-11-06T10:37:05.980Z,11.74
2017-11-06T10:39:31.921Z,11.74
2017-11-06T10:41:57.845Z,11.76
2017-11-06T10:44:23.798Z,11.73
2017-11-06T10:46:49.774Z,11.83
2017-11-06T10:49:15.756Z,11.82
2017-11-06T10:51:41.782Z,11.76
2017-11-06T10:54:07.744Z,11.78
2017-11-06T10:56:33.757Z,11.85
2017-11-06T10:58:59.759Z,11.79
2017-11-06T11:01:25.700Z,11.77
2017-11-06T11:03:51.651Z,11.80
2017-11-06T11:06:17.610Z,11.82
2017-11-06T11:08:43.580Z,11.99
2017-11-06T11:11:09.550Z,11.90
2017-11-06T11:13:35.615Z,11.88
2017-11-06T11:16:01.567Z,11.94
2017-11-06T11:18:27.676Z,11.98
2017-11-06T11:20:53.648Z,11.87
2017-11-06T11:23:19.667Z,11.89
2017-11-06T11:25:45.620Z,12.06
2017-11-06T11:28:11.598Z,12.02
2017-11-06T11:30:37.546Z,12.00
2017-11-06T11:33:03.480Z,12.05
2017-11-06T11:35:29.510Z,12.16
2017-11-06T11:37:55.440Z,12.14
2017-11-06T11:40:21.388Z,12.03
2017-11-06T11:42:47.375Z,12.10
2017-11-06T11:45:13.366Z,12.08
2017-11-06T11:47:39.314Z,12.15
2017-11-06T11:50:05.266Z,12.23
2017-11-06T11:52:31.260Z,12.26
2017-11-06T11:54:57.232Z,12.28
2017-11-06T11:57:23.204Z,12.18
2017-11-06T11:59:49.148Z,12.34
2017-11-06T12:02:15.150Z,12.18
2017-11-06T12:04:41.110Z,12.27
2017-11-06T12:07:07.071Z,12.26
2017-11-06T12:09:33.010Z,12.17
2017-11-06T12:11:58.980Z,12.27
2017-11-06T12:14:24.934Z,12.21
2017-11-06T12:16:50.920Z,12.30
2017-11-06T12:19:16.848Z,12.24
2017-11-06T12:21:42.818Z,12.27
2017-11-06T12:24:08.794Z,12.24
2017-11-06T12:26:34.793Z,12.26
2017-11-06T12:29:00.828Z,12.42
2017-11-06T12:31:26.758Z,12.27
2017-11-06T12:33:52.724Z,12.28
2017-11-06T12:36:18.690Z,12.22
2017-11-06T12:38:44.682Z,12.20
2017-11-06T12:41:10.622Z,12.25
2017-11-06T12:43:36.552Z,12.34
2017-11-06T12:46:02.564Z,12.30
2017-11-06T12:48:28.498Z,12.30
2017-11-06T12:50:54.463Z,12.25
2017-11-06T12:53:21.556Z,12.31
2017-11-06T12:55:47.530Z,12.19
2017-11-06T12:58:13.508Z,12.27
2017-11-06T13:00:39.440Z,12.21
2017-11-06T13:03:05.440Z,12.31
2017-11-06T13:05:31.472Z,12.28
2017-11-06T13:07:57.480Z,12.26
2017-11-06T13:10:23.458Z,12.22
2017-11-06T13:12:49.424Z,12.22
2017-11-06T13:15:15.390Z,12.33
2017-11-06T13:17:41.337Z,12.41
2017-11-06T13:20:07.276Z,12.42
2017-11-06T13:22:34.232Z,12.32
2017-11-06T13:25:00.177Z,12.39
2017-11-06T13:27:26.184Z,12.50
2017-11-06T13:29:52.116Z,12.41
2017-11-06T13:32:18.069Z,12.33
2017-11-06T13:34:44.048Z,12.42
2017-11-06T13:37:09.992Z,12.39
2017-11-06T13:39:35.939Z,12.48
2017-11-06T13:42:01.916Z,12.31
2017-11-06T13:44:27.892Z,12.20
2017-11-06T13:46:53.838Z,12.23
2017-11-06T13:49:19.792Z,12.37
2017-11-06T13:51:45.739Z,12.36
2017-11-06T13:54:11.705Z,12.30
2017-11-06T13:56:37.648Z,12.25
2017-11-06T13:59:03.592Z,12.30
2017-11-06T14:01:29.554Z,12.28
2017-11-06T14:03:55.498Z,12.31
2017-11-06T14:06:21.448Z,12.32
2017-11-06T14:08:47.404Z,12.23
2017-11-06T14:11:13.354Z,12.36
2017-11-06T14:13:39.844Z,12.31
2017-11-06T14:16:05.792Z,12.37
2017-11-06T14:18:31.768Z,12.42
2017-11-06T14:20:57.802Z,12.33
2017-11-06T14:23:23.752Z,12.22
2017-11-06T14:25:49.720Z,12.28
2017-11-06T14:28:15.656Z,12.27
2017-11-06T14:30:41.812Z,12.23
2017-11-06T14:33:07.756Z,12.31
2017-11-06T14:35:33.697Z,12.31
2017-11-06T14:37:59.655Z,12.19
2017-11-06T14:40:25.590Z,12.24
2017-11-06T14:42:51.539Z,12.23
2017-11-06T14:45:17.467Z,12.24
2017-11-06T14:47:43.426Z,12.30
2017-11-06T14:50:09.364Z,12.27
2017-11-06T14:52:35.323Z,12.10
2017-11-06T14:55:01.269Z,12.10
2017-11-06T14:57:27.213Z,12.11
2017-11-06T14:59:53.200Z,12.16
2017-11-06T15:02:19.159Z,12.20
2017-11-06T15:04:45.124Z,12.14
2017-11-06T15:07:11.064Z,12.11
2017-11-06T15:09:37.028Z,12.06
2017-11-06T15:12:02.968Z,12.13
2017-11-06T15:14:29.912Z,12.14
2017-11-06T15:16:55.864Z,12.17
2017-11-06T15:19:21.803Z,12.13
2017-11-06T15:21:47.790Z,12.16
2017-11-06T15:24:13.735Z,12.00
2017-11-06T15:26:39.668Z,12.02
2017-11-06T15:29:05.634Z,12.04
2017-11-06T15:31:31.628Z,12.02
2017-11-06T15:33:57.571Z,12.06
2017-11-06T15:36:23.517Z,12.10
2017-11-06T15:38:49.460Z,12.06
2017-11-06T15:41:15.437Z,12.08
2017-11-06T15:43:41.403Z,11.91
2017-11-06T15:46:07.330Z,12.05
2017-11-06T15:48:33.285Z,11.99
2017-11-06T15:50:59.225Z,11.91
2017-11-06T15:53:25.528Z,11.84
2017-11-06T15:55:51.468Z,11.80
2017-11-06T15:58:17.470Z,11.77
2017-11-06T16:00:43.418Z,11.73
2017-11-06T16:03:09.364Z,11.69
2017-11-06T16:05:35.616Z,11.64
2017-11-06T16:08:01.547Z,11.66
2017-11-06T16:10:27.519Z,11.64
2017-11-06T16:12:53.458Z,11.59
2017-11-06T16:15:19.413Z,11.58
2017-11-06T16:17:45.387Z,11.36
2017-11-06T16:20:11.326Z,11.14
2017-11-06T16:22:37.488Z,11.41
2017-11-06T16:25:03.456Z,11.50
2017-11-06T16:27:29.411Z,11.42
2017-11-06T16:29:55.351Z,11.46
2017-11-06T16:32:21.341Z,11.40
2017-11-06T16:34:47.530Z,11.44
2017-11-06T16:37:13.544Z,11.34
2017-11-06T16:39:39.506Z,11.24
2017-11-06T16:42:05.452Z,11.40
2017-11-06T16:44:31.510Z,11.32
2017-11-06T16:46:57.814Z,11.24
2017-11-06T16:49:23.775Z,11.19
2017-11-06T16:51:49.784Z,11.35
2017-11-06T16:54:15.737Z,11.30
2017-11-06T16:56:41.689Z,11.30
2017-11-06T16:59:07.660Z,11.24
2017-11-06T17:01:33.600Z,11.37
2017-11-06T17:03:59.663Z,11.12
2017-11-06T17:06:25.629Z,11.26
2017-11-06T17:08:51.627Z,11.33
2017-11-06T17:11:17.613Z,11.18
2017-11-06T17:13:43.668Z,11.31
2017-11-06T17:16:09.653Z,11.32
2017-11-06T17:18:35.595Z,11.31
2017-11-06T17:21:01.542Z,11.11
2017-11-06T17:23:27.488Z,11.12
2017-11-06T17:25:53.487Z,11.04
2017-11-06T17:28:19.497Z,11.14
2017-11-06T17:30:45.456Z,11.18
2017-11-06T17:33:11.412Z,10.89
2017-11-06T17:35:37.399Z,11.15
2017-11-06T17:38:03.345Z,11.45
2017-11-06T17:40:30.137Z,11.74
2017-11-06T17:43:01.165Z,11.63
2017-11-06T17:47:58.961Z,11.64
2017-11-06T17:50:24.920Z,11.43
2017-11-06T17:52:51.199Z,11.76
2017-11-06T17:55:17.242Z,11.85
2017-11-06T17:57:43.268Z,11.91
2017-11-06T18:00:09.222Z,11.95
2017-11-06T18:02:35.202Z,11.72
2017-11-06T18:05:01.320Z,11.81
2017-11-06T18:07:27.381Z,11.42
2017-11-06T18:09:53.422Z,11.39
2017-11-06T18:12:19.687Z,11.39
2017-11-06T18:14:45.745Z,11.45
2017-11-06T18:17:11.955Z,11.41
2017-11-06T18:19:37.904Z,11.31
2017-11-06T18:22:03.863Z,11.60
2017-11-06T18:24:29.843Z,11.44
2017-11-06T18:26:55.846Z,11.59
2017-11-06T18:29:21.833Z,11.76
2017-11-06T18:31:47.932Z,11.80
2017-11-06T18:34:13.983Z,11.58
2017-11-06T18:36:40.042Z,11.39
2017-11-06T18:39:05.996Z,11.27
2017-11-06T18:41:31.975Z,11.20
2017-11-06T18:43:57.935Z,11.35
2017-11-06T18:46:24.045Z,11.36
2017-11-06T18:48:50.011Z,11.26
2017-11-06T18:51:15.998Z,11.21
2017-11-06T18:53:41.961Z,11.12
2017-11-06T18:56:08.133Z,11.20
2017-11-06T18:58:34.114Z,11.20
2017-11-06T19:01:00.091Z,11.06
2017-11-06T19:03:26.131Z,10.96
2017-11-06T19:05:52.079Z,10.97
2017-11-06T19:08:18.024Z,10.99
2017-11-06T19:10:43.976Z,11.09
2017-11-06T19:13:09.976Z,10.98
2017-11-06T19:15:35.956Z,11.09
2017-11-06T19:18:02.007Z,11.20
2017-11-06T19:20:27.968Z,11.04
2017-11-06T19:22:53.920Z,11.14
2017-11-06T19:25:20.321Z,11.06
2017-11-06T19:27:46.288Z,10.99
2017-11-06T19:30:12.884Z,11.03
2017-11-06T19:32:38.877Z,11.15
2017-11-06T19:35:04.829Z,11.21
2017-11-06T19:37:30.814Z,10.92
2017-11-06T19:39:56.768Z,11.04
2017-11-06T19:42:22.761Z,11.10
2017-11-06T19:44:48.829Z,11.13
2017-11-06T19:47:14.825Z,11.20
2017-11-06T19:49:40.887Z,11.14
2017-11-06T19:52:06.834Z,11.04
2017-11-06T19:54:32.781Z,11.16
2017-11-06T19:56:58.802Z,11.05
2017-11-06T19:59:24.757Z,11.04
2017-11-06T20:01:50.689Z,11.14
2017-11-06T20:04:16.635Z,11.01
2017-11-06T20:06:42.677Z,11.11
2017-11-06T20:09:08.677Z,11.18
2017-11-06T20:11:34.668Z,11.03
2017-11-06T20:14:00.659Z,10.90
2017-11-06T20:16:26.630Z,11.09
2017-11-06T20:18:52.610Z,11.12
2017-11-06T20:21:18.557Z,11.11
2017-11-06T20:23:44.527Z,11.16
2017-11-06T20:26:11.062Z,11.19
2017-11-06T20:28:37.197Z,11.13
2017-11-06T20:31:03.220Z,11.16
2017-11-06T20:33:29.263Z,11.23
2017-11-06T20:35:55.218Z,11.27
2017-11-06T20:38:21.194Z,11.24
2017-11-06T20:40:48.238Z,11.36
2017-11-06T20:43:14.191Z,11.40
2017-11-06T20:45:40.153Z,11.37
2017-11-06T20:48:07.151Z,11.38
2017-11-06T20:50:33.211Z,11.43
2017-11-06T20:52:59.153Z,11.42
2017-11-06T20:55:25.113Z,11.29
2017-11-06T20:57:51.109Z,11.29
2017-11-06T21:00:17.189Z,11.47
2017-11-06T21:02:43.175Z,11.42
2017-11-06T21:05:09.129Z,11.45
2017-11-06T21:07:35.109Z,11.39
2017-11-06T21:10:01.059Z,11.37
2017-11-06T21:12:27.273Z,11.32
2017-11-06T21:14:54.127Z,11.23
2017-11-06T21:17:20.102Z,11.32
2017-11-06T21:19:46.132Z,11.29
2017-11-06T21:22:12.093Z,11.35
2017-11-06T21:24:38.073Z,11.38
2017-11-06T21:27:04.015Z,11.40
2017-11-06T21:29:29.959Z,11.58
2017-11-06T21:31:55.902Z,11.58
2017-11-06T21:34:21.840Z,11.37
2017-11-06T21:36:47.793Z,11.31
2017-11-06T21:39:13.819Z,11.28
2017-11-06T21:41:39.792Z,11.43
2017-11-06T21:44:05.796Z,11.38
2017-11-06T21:46:31.727Z,11.31
2017-11-06T21:48:57.699Z,11.38
2017-11-06T21:51:23.691Z,11.32
2017-11-06T21:53:49.669Z,11.34
2017-11-06T21:56:15.604Z,11.53
2017-11-06T21:58:41.559Z,11.45
2017-11-06T22:01:07.492Z,11.36
2017-11-06T22:03:33.425Z,11.37
2017-11-06T22:05:59.424Z,11.36
2017-11-06T22:08:25.362Z,11.35
2017-11-06T22:10:51.309Z,11.30
2017-11-06T22:13:17.290Z,11.25
2017-11-06T22:15:43.293Z,11.38
2017-11-06T22:18:09.240Z,11.38
2017-11-06T22:20:35.235Z,11.40
2017-11-06T22:23:01.233Z,11.40
2017-11-06T22:25:27.183Z,11.32
2017-11-06T22:27:53.171Z,11.36
2017-11-06T22:30:19.712Z,11.37
2017-11-06T22:32:45.655Z,11.38
2017-11-06T22:35:11.640Z,11.46
2017-11-06T22:37:37.583Z,11.51
2017-11-06T22:40:03.530Z,11.46
2017-11-06T22:42:29.477Z,11.24
2017-11-06T22:44:55.429Z,11.37
2017-11-06T22:47:21.375Z,11.30
2017-11-06T22:49:47.351Z,11.38
2017-11-06T22:52:13.293Z,11.23
2017-11-06T22:54:39.227Z,11.31
2017-11-06T22:57:05.163Z,11.25
2017-11-06T22:59:31.088Z,11.30
2017-11-06T23:01:57.024Z,11.41
2017-11-06T23:04:22.983Z,11.32
2017-11-06T23:06:48.921Z,11.36
2017-11-06T23:09:14.935Z,11.33
2017-11-06T23:11:40.891Z,11.34
2017-11-06T23:14:06.850Z,11.21
2017-11-06T23:16:32.784Z,11.38
2017-11-06T23:18:58.736Z,11.21
2017-11-06T23:21:24.678Z,11.33
2017-11-06T23:23:50.614Z,11.35
2017-11-06T23:26:16.580Z,11.21
2017-11-06T23:28:42.512Z,11.26
2017-11-06T23:31:08.439Z,11.20
2017-11-06T23:33:34.412Z,11.37
2017-11-06T23:36:00.327Z,11.23
2017-11-06T23:38:26.257Z,11.17
2017-11-06T23:40:52.179Z,11.29
2017-11-06T23:43:18.100Z,11.29
2017-11-06T23:45:44.079Z,11.28
2017-11-06T23:48:10.021Z,11.10
2017-11-06T23:50:35.959Z,11.11
2017-11-06T23:53:01.917Z,11.25
2017-11-06T23:55:27.880Z,11.10
2017-11-06T23:57:53.867Z,11.31
